createdAt,value
2018-07-26T00:04:18.272Z,24.70
2018-07-26T00:09:11.636Z,24.60
2018-07-26T00:14:04.896Z,24.50
2018-07-26T00:18:59.167Z,24.40
2018-07-26T00:23:52.275Z,24.40
2018-07-26T00:28:45.724Z,24.30
2018-07-26T00:33:39.984Z,24.20
2018-07-26T00:38:32.956Z,24.20
2018-07-26T00:43:28.419Z,24.10
2018-07-26T00:48:21.055Z,23.90
2018-07-26T00:53:17.468Z,23.90
2018-07-26T00:58:09.904Z,23.90
2018-07-26T01:03:03.408Z,23.80
2018-07-26T01:07:59.703Z,23.80
2018-07-26T01:12:55.276Z,23.70
2018-07-26T01:17:50.948Z,23.70
2018-07-26T01:22:43.919Z,23.70
2018-07-26T01:27:40.053Z,23.70
2018-07-26T01:32:35.603Z,23.60
2018-07-26T01:37:31.044Z,23.60
2018-07-26T01:42:28.652Z,23.50
2018-07-26T01:47:25.348Z,23.50
2018-07-26T01:52:20.703Z,23.40
2018-07-26T01:57:16.251Z,23.40
2018-07-26T02:02:11.620Z,23.30
2018-07-26T02:07:06.999Z,23.20
2018-07-26T02:12:03.680Z,23.10
2018-07-26T02:16:59.306Z,23.00
2018-07-26T02:21:54.767Z,22.90
2018-07-26T02:26:50.316Z,22.80
2018-07-26T02:31:45.960Z,22.70
2018-07-26T02:36:40.706Z,22.60
2018-07-26T02:41:36.488Z,22.40
2018-07-26T02:46:32.132Z,22.20
2018-07-26T02:51:29.536Z,22.20
2018-07-26T02:56:23.600Z,22.00
2018-07-26T03:01:21.500Z,22.00
2018-07-26T03:06:17.740Z,21.90
2018-07-26T03:11:15.673Z,21.90
2018-07-26T03:16:10.956Z,21.90
2018-07-26T03:21:06.888Z,21.90
2018-07-26T03:26:02.261Z,21.80
2018-07-26T03:30:59.767Z,21.70
2018-07-26T03:35:57.132Z,21.70
2018-07-26T03:41:00.630Z,21.70
2018-07-26T03:46:20.114Z,21.70
2018-07-26T03:51:23.478Z,21.80
2018-07-26T03:56:24.260Z,21.80
2018-07-26T04:01:23.141Z,21.80
2018-07-26T04:06:25.714Z,21.70
2018-07-26T04:11:27.024Z,21.60
2018-07-26T04:16:28.041Z,21.60
2018-07-26T04:21:24.584Z,21.70
2018-07-26T04:26:21.608Z,21.70
2018-07-26T04:31:18.815Z,21.70
2018-07-26T04:36:16.993Z,21.70
2018-07-26T04:41:12.223Z,21.80
2018-07-26T04:46:07.924Z,21.80
2018-07-26T04:51:03.460Z,21.80
2018-07-26T04:55:59.105Z,21.90
2018-07-26T05:00:54.684Z,22.00
2018-07-26T05:05:50.500Z,22.20
2018-07-26T05:10:47.600Z,22.40
2018-07-26T05:15:42.896Z,22.50
2018-07-26T05:20:38.972Z,22.70
2018-07-26T05:25:34.559Z,22.80
2018-07-26T05:30:30.215Z,22.90
2018-07-26T05:35:26.000Z,23.20
2018-07-26T05:40:22.816Z,23.30
2018-07-26T05:45:17.351Z,23.40
2018-07-26T05:50:12.972Z,23.60
2018-07-26T05:55:08.755Z,23.80
2018-07-26T06:00:02.402Z,24.00
2018-07-26T06:04:58.460Z,24.10
2018-07-26T06:09:54.216Z,24.40
2018-07-26T06:14:50.059Z,24.50
2018-07-26T06:19:46.324Z,24.70
2018-07-26T06:24:41.820Z,24.80
2018-07-26T06:29:38.520Z,25.00
2018-07-26T06:34:30.933Z,25.10
2018-07-26T06:39:24.503Z,25.40
2018-07-26T06:44:17.952Z,25.60
2018-07-26T06:49:12.499Z,25.80
2018-07-26T06:54:05.588Z,26.00
2018-07-26T06:58:59.216Z,26.20
2018-07-26T07:03:53.436Z,26.40
2018-07-26T07:08:47.013Z,26.60
2018-07-26T07:13:40.337Z,26.80
2018-07-26T07:18:33.977Z,27.00
2018-07-26T07:23:27.536Z,27.30
2018-07-26T07:28:24.221Z,27.50
2018-07-26T07:33:17.598Z,27.90
2018-07-26T07:38:12.491Z,28.30
2018-07-26T07:43:06.224Z,28.60
2018-07-26T07:47:59.893Z,28.80
2018-07-26T07:52:54.922Z,29.00
2018-07-26T07:57:49.843Z,29.00
2018-07-26T08:02:44.019Z,28.90
2018-07-26T08:07:37.220Z,28.80
2018-07-26T08:12:31.709Z,28.60
2018-07-26T08:17:24.867Z,28.50
2018-07-26T08:22:18.496Z,28.50
2018-07-26T08:27:12.895Z,28.50
2018-07-26T08:32:07.167Z,28.60
2018-07-26T08:37:00.460Z,28.60
2018-07-26T08:41:54.329Z,29.00
2018-07-26T08:46:49.480Z,30.00
2018-07-26T08:51:44.640Z,31.30
2018-07-26T08:56:38.499Z,32.10
2018-07-26T09:01:33.675Z,32.80
2018-07-26T09:06:28.527Z,33.70
2018-07-26T09:11:24.496Z,34.30
2018-07-26T09:16:18.252Z,34.70
2018-07-26T09:21:12.256Z,35.20
2018-07-26T09:26:06.454Z,35.40
2018-07-26T09:31:00.778Z,35.80
2018-07-26T09:35:54.830Z,36.30
2018-07-26T09:40:48.678Z,36.60
2018-07-26T09:45:43.877Z,37.00
2018-07-26T09:50:39.397Z,37.00
2018-07-26T09:55:34.220Z,37.00
2018-07-26T10:00:28.165Z,37.40
2018-07-26T10:05:22.417Z,38.00
2018-07-26T10:10:18.292Z,38.30
2018-07-26T10:15:14.740Z,38.50
2018-07-26T10:20:09.680Z,38.50
2018-07-26T10:25:04.787Z,38.00
2018-07-26T10:29:59.901Z,37.80
2018-07-26T10:34:55.229Z,37.30
2018-07-26T10:39:50.513Z,37.00
2018-07-26T10:44:43.387Z,36.90
2018-07-26T10:49:38.988Z,36.80
2018-07-26T10:54:35.323Z,37.20
2018-07-26T10:59:30.586Z,37.80
2018-07-26T11:04:26.330Z,38.30
2018-07-26T11:09:21.912Z,39.10
2018-07-26T11:14:18.127Z,39.60
2018-07-26T11:19:13.600Z,39.80
2018-07-26T11:24:10.675Z,40.00
2018-07-26T11:29:06.080Z,40.40
2018-07-26T11:34:17.589Z,40.60
2018-07-26T11:39:17.061Z,40.60
2018-07-26T11:44:17.232Z,40.60
2018-07-26T11:49:35.597Z,40.90
2018-07-26T11:54:32.612Z,41.20
2018-07-26T12:04:50.794Z,41.80
2018-07-26T12:09:47.105Z,42.10
2018-07-26T12:14:43.449Z,42.50
2018-07-26T12:19:39.280Z,42.50
2018-07-26T12:24:35.744Z,42.70
2018-07-26T12:29:34.236Z,42.70
2018-07-26T12:35:36.797Z,42.70
2018-07-26T12:40:41.059Z,43.00
2018-07-26T12:45:39.612Z,43.10
2018-07-26T12:50:35.120Z,42.10
2018-07-26T12:55:31.543Z,41.40
2018-07-26T13:00:25.816Z,40.50
2018-07-26T13:05:26.406Z,39.50
2018-07-26T13:10:25.122Z,38.80
2018-07-26T13:15:18.565Z,38.10
2018-07-26T13:20:20.098Z,37.80
2018-07-26T13:25:18.878Z,38.10
2018-07-26T13:30:14.375Z,39.30
2018-07-26T13:35:11.760Z,40.40
2018-07-26T13:40:07.686Z,41.30
2018-07-26T13:50:19.331Z,42.10
2018-07-26T13:55:15.133Z,42.20
2018-07-26T14:00:15.694Z,41.90
2018-07-26T14:05:10.573Z,41.70
2018-07-26T14:10:06.144Z,41.80
2018-07-26T14:15:03.620Z,41.50
2018-07-26T14:20:00.185Z,41.20
2018-07-26T14:24:55.646Z,41.00
2018-07-26T14:29:53.597Z,40.90
2018-07-26T14:34:48.495Z,41.00
2018-07-26T14:39:43.799Z,41.10
2018-07-26T14:44:39.708Z,41.20
2018-07-26T14:49:40.207Z,41.30
2018-07-26T14:54:35.591Z,41.20
2018-07-26T14:59:30.734Z,40.20
2018-07-26T15:04:25.537Z,39.80
2018-07-26T15:09:20.449Z,39.30
2018-07-26T15:14:19.526Z,39.00
2018-07-26T15:19:17.857Z,39.00
2018-07-26T15:24:15.911Z,39.10
2018-07-26T15:29:13.394Z,39.70
2018-07-26T15:34:08.665Z,39.60
2018-07-26T15:39:03.363Z,38.90
2018-07-26T15:43:58.566Z,38.40
2018-07-26T15:48:53.218Z,37.70
2018-07-26T15:53:48.945Z,37.40
2018-07-26T15:58:45.019Z,37.50
2018-07-26T16:03:41.883Z,37.50
2018-07-26T16:08:38.566Z,37.50
2018-07-26T16:13:37.300Z,37.50
2018-07-26T16:18:32.568Z,37.60
2018-07-26T16:23:27.386Z,37.50
2018-07-26T16:28:22.706Z,37.50
2018-07-26T16:33:17.557Z,37.10
2018-07-26T16:38:13.659Z,36.50
2018-07-26T16:43:08.054Z,36.00
2018-07-26T16:48:03.259Z,35.80
2018-07-26T16:52:59.246Z,35.50
2018-07-26T16:57:55.351Z,35.40
2018-07-26T17:02:50.367Z,35.30
2018-07-26T17:07:43.119Z,35.30
2018-07-26T17:12:38.342Z,35.40
2018-07-26T17:17:34.686Z,35.30
2018-07-26T17:22:29.535Z,35.20
2018-07-26T17:27:24.612Z,35.20
2018-07-26T17:32:19.633Z,35.10
2018-07-26T17:37:14.647Z,35.00
2018-07-26T17:42:12.406Z,34.90
2018-07-26T17:47:10.229Z,34.90
2018-07-26T17:52:06.034Z,34.80
2018-07-26T17:57:00.808Z,34.60
2018-07-26T18:01:55.889Z,34.40
2018-07-26T18:06:50.872Z,34.30
2018-07-26T18:11:43.581Z,34.10
2018-07-26T18:16:39.139Z,33.70
2018-07-26T18:21:34.164Z,33.40
2018-07-26T18:26:29.207Z,33.20
2018-07-26T18:31:26.149Z,32.90
2018-07-26T18:36:18.232Z,32.90
2018-07-26T18:41:11.298Z,32.70
2018-07-26T18:46:06.765Z,32.60
2018-07-26T18:51:00.809Z,32.40
2018-07-26T18:55:53.908Z,32.20
2018-07-26T19:17:10.176Z,31.90
2018-07-26T19:22:06.254Z,31.80
2018-07-26T19:26:59.255Z,31.80
2018-07-26T19:31:52.806Z,31.50
2018-07-26T19:36:47.993Z,31.40
2018-07-26T19:41:43.733Z,31.20
2018-07-26T19:46:40.391Z,31.00
2018-07-26T19:51:34.305Z,30.90
2018-07-26T19:56:28.433Z,30.90
2018-07-26T20:01:25.801Z,30.90
2018-07-26T20:06:19.549Z,30.90
2018-07-26T20:11:14.103Z,30.90
2018-07-26T20:16:07.328Z,30.90
2018-07-26T20:21:00.735Z,30.90
2018-07-26T20:25:54.052Z,30.90
2018-07-26T20:30:47.615Z,30.90
2018-07-26T20:35:41.182Z,30.80
2018-07-26T20:40:34.749Z,30.70
2018-07-26T20:45:28.121Z,30.80
2018-07-26T20:50:21.597Z,30.70
2018-07-26T20:55:17.193Z,30.60
2018-07-26T21:00:11.300Z,30.50
2018-07-26T21:05:04.365Z,30.40
2018-07-26T21:09:57.783Z,30.30
2018-07-26T21:14:51.178Z,30.30
2018-07-26T21:19:46.664Z,30.20
2018-07-26T21:24:40.638Z,30.10
2018-07-26T21:29:34.785Z,30.00
2018-07-26T21:34:29.176Z,29.90
2018-07-26T21:39:22.484Z,29.80
2018-07-26T21:44:15.864Z,29.80
2018-07-26T21:49:09.260Z,29.70
2018-07-26T21:54:02.557Z,29.50
2018-07-26T21:58:55.772Z,29.40
2018-07-26T22:03:50.224Z,29.30
2018-07-26T22:08:43.506Z,29.20
2018-07-26T22:13:37.084Z,29.10
2018-07-26T22:18:33.141Z,28.90
2018-07-26T22:23:26.044Z,28.90
2018-07-26T22:28:19.492Z,28.80
2018-07-26T22:33:12.893Z,28.70
2018-07-26T22:38:07.299Z,28.60
2018-07-26T22:43:00.527Z,28.50
2018-07-26T22:47:55.084Z,28.40
2018-07-26T22:52:49.240Z,28.30
2018-07-26T22:57:42.477Z,28.20
2018-07-26T23:02:35.957Z,28.10
2018-07-26T23:07:30.241Z,28.00
2018-07-26T23:12:23.497Z,28.00
2018-07-26T23:17:18.735Z,27.90
2018-07-26T23:22:12.722Z,27.80
2018-07-26T23:27:06.910Z,27.80
2018-07-26T23:32:00.053Z,27.70
2018-07-26T23:36:54.891Z,27.60
2018-07-26T23:41:47.849Z,27.40
2018-07-26T23:46:41.116Z,27.40
2018-07-26T23:51:35.609Z,27.30
2018-07-26T23:56:29.648Z,27.20
